createdAt,value
2023-04-18T00:03:00.907Z,50.00
2023-04-18T00:06:45.095Z,51.50
2023-04-18T00:09:38.320Z,49.10
2023-04-18T00:12:11.656Z,49.50
2023-04-18T00:14:41.268Z,51.20
2023-04-18T00:17:10.609Z,49.80
2023-04-18T00:19:43.525Z,51.30
2023-04-18T00:22:43.036Z,44.30
2023-04-18T00:25:12.486Z,44.90
2023-04-18T00:27:42.906Z,49.60
2023-04-18T00:30:21.386Z,41.50
2023-04-18T00:36:40.161Z,51.60
2023-04-18T00:43:28.429Z,46.60
2023-04-18T00:45:59.560Z,53.50
2023-04-18T00:48:39.324Z,47.80
2023-04-18T00:51:09.865Z,42.80
2023-04-18T00:53:42.347Z,47.20
2023-04-18T00:56:11.754Z,48.80
2023-04-18T00:58:41.150Z,45.40
2023-04-18T01:01:11.648Z,47.10
2023-04-18T01:03:46.835Z,51.20
2023-04-18T01:06:17.071Z,50.30
2023-04-18T01:08:46.111Z,49.80
2023-04-18T01:11:14.593Z,45.30
2023-04-18T01:13:43.476Z,52.60
2023-04-18T01:16:12.515Z,46.70
2023-04-18T01:18:41.188Z,47.60
2023-04-18T01:21:10.259Z,50.40
2023-04-18T01:23:39.556Z,44.40
2023-04-18T01:26:08.038Z,45.90
2023-04-18T01:29:01.082Z,50.60
2023-04-18T01:31:36.350Z,44.60
2023-04-18T01:34:06.055Z,51.90
2023-04-18T01:36:36.981Z,48.90
2023-04-18T01:42:16.248Z,44.30
2023-04-18T01:44:46.045Z,52.00
2023-04-18T01:47:17.873Z,44.90
2023-04-18T01:49:48.551Z,46.20
2023-04-18T01:52:18.145Z,43.00
2023-04-18T01:55:12.275Z,44.40
2023-04-18T01:57:40.515Z,46.10
2023-04-18T02:00:11.024Z,50.60
2023-04-18T02:02:45.479Z,42.20
2023-04-18T02:05:39.220Z,44.70
2023-04-18T02:08:09.321Z,50.50
2023-04-18T02:10:39.772Z,45.80
2023-04-18T02:13:08.257Z,52.60
2023-04-18T02:15:37.782Z,58.00
2023-04-18T02:18:07.265Z,48.40
2023-04-18T02:20:36.688Z,45.40
2023-04-18T02:23:05.990Z,48.30
2023-04-18T02:25:34.548Z,48.70
2023-04-18T02:28:03.142Z,46.90
2023-04-18T02:30:32.874Z,47.60
2023-04-18T02:33:03.822Z,53.20
2023-04-18T02:35:32.475Z,52.20
2023-04-18T02:38:01.023Z,45.00
2023-04-18T02:40:29.950Z,46.60
2023-04-18T02:43:02.311Z,49.30
2023-04-18T02:45:31.309Z,47.60
2023-04-18T02:48:01.699Z,46.30
2023-04-18T02:50:30.496Z,48.00
2023-04-18T02:52:59.118Z,50.50
2023-04-18T02:55:41.014Z,51.10
2023-04-18T02:58:09.887Z,47.20
2023-04-18T03:01:05.536Z,47.90
2023-04-18T03:04:08.410Z,51.70
2023-04-18T03:06:44.039Z,50.60
2023-04-18T03:09:12.933Z,50.90
2023-04-18T03:11:50.751Z,49.10
2023-04-18T03:14:22.082Z,55.70
2023-04-18T03:16:55.222Z,47.50
2023-04-18T03:19:27.540Z,52.00
2023-04-18T03:21:56.433Z,50.50
2023-04-18T03:24:25.120Z,52.10
2023-04-18T03:26:54.424Z,51.70
2023-04-18T03:29:25.050Z,48.60
2023-04-18T03:31:53.541Z,49.60
2023-04-18T03:34:22.534Z,48.70
2023-04-18T03:36:51.621Z,47.10
2023-04-18T03:39:20.099Z,48.00
2023-04-18T03:41:49.703Z,50.50
2023-04-18T03:44:18.594Z,48.70
2023-04-18T03:46:47.591Z,50.30
2023-04-18T03:49:16.377Z,47.40
2023-04-18T03:51:50.073Z,49.60
2023-04-18T03:54:19.378Z,48.30
2023-04-18T03:56:48.062Z,49.40
2023-04-18T03:59:16.760Z,41.00
2023-04-18T04:01:47.904Z,44.90
2023-04-18T04:04:16.809Z,44.10
2023-04-18T04:06:46.804Z,48.70
2023-04-18T04:09:15.595Z,42.50
2023-04-18T04:11:46.029Z,44.90
2023-04-18T04:14:16.122Z,49.60
2023-04-18T04:16:48.061Z,39.70
2023-04-18T04:19:19.574Z,38.30
2023-04-18T04:21:56.642Z,44.30
2023-04-18T04:24:50.505Z,45.20
2023-04-18T04:27:25.251Z,44.10
2023-04-18T04:29:54.449Z,40.10
2023-04-18T04:32:22.995Z,39.70
2023-04-18T04:34:52.164Z,41.30
2023-04-18T04:37:23.029Z,45.80
2023-04-18T04:40:06.514Z,42.10
2023-04-18T04:42:54.513Z,42.50
2023-04-18T04:45:27.351Z,42.20
2023-04-18T04:47:56.311Z,45.50
2023-04-18T04:50:24.978Z,37.30
2023-04-18T04:52:53.666Z,39.70
2023-04-18T04:55:51.947Z,44.60
2023-04-18T04:58:21.143Z,48.30
2023-04-18T05:01:08.314Z,47.30
2023-04-18T05:03:52.929Z,39.30
2023-04-18T05:06:23.044Z,41.80
2023-04-18T05:14:28.384Z,38.20
2023-04-18T05:17:56.239Z,43.30
2023-04-18T05:20:50.777Z,40.40
2023-04-18T05:23:48.156Z,38.00
2023-04-18T05:26:50.801Z,39.70
2023-04-18T05:29:26.792Z,44.60
2023-04-18T05:31:55.671Z,42.40
2023-04-18T05:34:28.242Z,46.20
2023-04-18T05:37:31.042Z,38.20
2023-04-18T05:40:09.231Z,40.10
2023-04-18T05:42:37.927Z,42.40
2023-04-18T05:45:07.875Z,42.30
2023-04-18T05:48:26.310Z,39.50
2023-04-18T05:51:06.369Z,37.00
2023-04-18T05:53:35.673Z,38.20
2023-04-18T05:56:11.647Z,41.30
2023-04-18T05:58:42.069Z,45.20
2023-04-18T06:01:14.968Z,35.20
2023-04-18T06:03:46.261Z,37.20
2023-04-18T06:06:15.402Z,34.90
2023-04-18T06:08:45.300Z,41.10
2023-04-18T06:11:15.658Z,40.40
2023-04-18T06:13:45.212Z,35.50
2023-04-18T06:17:02.608Z,34.10
2023-04-18T06:20:01.115Z,37.70
2023-04-18T06:22:29.812Z,41.70
2023-04-18T06:25:56.732Z,32.90
2023-04-18T06:29:28.185Z,37.90
2023-04-18T06:32:44.319Z,31.70
2023-04-18T06:36:05.638Z,30.40
2023-04-18T06:38:39.453Z,35.40
2023-04-18T06:41:17.048Z,25.90
2023-04-18T06:44:13.331Z,29.80
2023-04-18T06:46:42.921Z,27.80
2023-04-18T06:49:42.604Z,33.90
2023-04-18T06:52:12.955Z,29.60
2023-04-18T06:54:41.503Z,30.30
2023-04-18T06:58:01.708Z,31.90
2023-04-18T07:00:30.778Z,28.20
2023-04-18T07:02:59.456Z,29.40
2023-04-18T07:10:34.534Z,26.90
2023-04-18T07:14:02.133Z,24.90
2023-04-18T07:17:15.971Z,24.50
2023-04-18T07:19:45.043Z,25.30
2023-04-18T07:22:38.909Z,24.20
2023-04-18T07:25:08.628Z,32.60
2023-04-18T07:27:37.819Z,30.30
2023-04-18T07:30:07.545Z,26.00
2023-04-18T07:32:44.086Z,27.50
2023-04-18T07:35:12.796Z,22.10
2023-04-18T07:37:42.567Z,25.00
2023-04-18T07:40:11.723Z,29.70
2023-04-18T07:42:40.832Z,26.70
2023-04-18T07:45:15.776Z,23.60
2023-04-18T07:47:45.025Z,26.80
2023-04-18T07:50:13.941Z,23.60
2023-04-18T07:52:42.771Z,25.20
2023-04-18T07:55:11.538Z,23.90
2023-04-18T07:57:45.946Z,26.20
2023-04-18T08:00:19.930Z,24.80
2023-04-18T08:02:49.367Z,34.10
2023-04-18T08:05:20.476Z,24.90
2023-04-18T08:07:49.060Z,26.20
2023-04-18T08:10:17.943Z,22.80
2023-04-18T08:12:46.847Z,24.30
2023-04-18T08:15:15.619Z,25.20
2023-04-18T08:17:45.600Z,29.20
2023-04-18T08:20:14.132Z,28.60
2023-04-18T08:22:57.731Z,19.60
2023-04-18T08:25:56.750Z,22.90
2023-04-18T08:28:25.955Z,27.00
2023-04-18T08:30:55.493Z,23.30
2023-04-18T08:33:28.881Z,19.20
2023-04-18T08:35:57.848Z,16.70
2023-04-18T08:38:26.744Z,20.50
2023-04-18T08:40:55.626Z,18.00
2023-04-18T08:43:25.749Z,20.20
2023-04-18T08:45:59.709Z,17.80
2023-04-18T08:48:28.630Z,21.20
2023-04-18T08:51:02.253Z,15.50
2023-04-18T08:54:06.869Z,15.50
2023-04-18T08:56:37.746Z,20.70
2023-04-18T08:59:07.036Z,16.20
2023-04-18T09:02:02.054Z,21.10
2023-04-18T09:04:38.298Z,23.20
2023-04-18T09:07:31.843Z,18.00
2023-04-18T09:10:01.141Z,16.40
2023-04-18T09:15:54.629Z,16.10
2023-04-18T09:18:24.797Z,23.00
2023-04-18T09:21:17.613Z,16.00
2023-04-18T09:24:21.287Z,21.20
2023-04-18T09:26:54.207Z,20.50
2023-04-18T09:29:45.234Z,21.20
2023-04-18T09:32:25.946Z,15.70
2023-04-18T09:34:58.647Z,19.20
2023-04-18T09:41:11.111Z,17.30
2023-04-18T09:44:15.243Z,19.10
2023-04-18T09:46:47.561Z,19.20
2023-04-18T09:49:18.048Z,17.80
2023-04-18T09:52:10.522Z,23.70
2023-04-18T09:54:39.909Z,20.70
2023-04-18T09:57:13.964Z,17.70
2023-04-18T09:59:52.420Z,14.50
2023-04-18T10:02:25.710Z,18.20
2023-04-18T10:04:57.374Z,18.10
2023-04-18T10:08:16.487Z,18.60
2023-04-18T10:11:13.330Z,18.30
2023-04-18T10:13:44.853Z,18.90
2023-04-18T10:16:21.401Z,13.50
2023-04-18T10:18:51.775Z,16.70
2023-04-18T10:21:55.090Z,18.90
2023-04-18T10:24:45.366Z,15.20
2023-04-18T10:27:15.692Z,17.60
2023-04-18T10:29:54.555Z,17.70
2023-04-18T10:32:48.147Z,15.90
2023-04-18T10:35:16.891Z,16.60
2023-04-18T10:37:52.740Z,15.20
2023-04-18T10:40:42.728Z,16.50
2023-04-18T10:43:13.662Z,17.50
2023-04-18T10:45:44.176Z,15.20
2023-04-18T10:48:25.108Z,19.60
2023-04-18T10:51:16.004Z,22.10
2023-04-18T10:53:58.513Z,19.50
2023-04-18T10:56:28.417Z,18.00
2023-04-18T10:59:03.430Z,17.60
2023-04-18T11:01:33.423Z,19.00
2023-04-18T11:09:17.633Z,16.80
2023-04-18T11:12:03.428Z,25.80
2023-04-18T11:15:32.761Z,20.40
2023-04-18T11:18:12.171Z,16.40
2023-04-18T11:21:02.765Z,15.60
2023-04-18T11:27:36.301Z,15.30
2023-04-18T11:35:43.341Z,19.50
2023-04-18T11:39:13.512Z,14.80
2023-04-18T11:42:37.693Z,17.00
2023-04-18T11:45:49.837Z,17.00
2023-04-18T11:48:50.703Z,13.30
2023-04-18T11:52:39.593Z,16.40
2023-04-18T11:55:56.468Z,9.80
2023-04-18T12:05:42.138Z,14.70
2023-04-18T12:09:14.650Z,13.40
2023-04-18T12:12:55.385Z,10.50
2023-04-18T12:15:44.738Z,12.30
2023-04-18T12:18:15.718Z,11.90
2023-04-18T12:20:52.824Z,12.10
2023-04-18T12:23:35.759Z,13.70
2023-04-18T12:26:16.384Z,10.90
2023-04-18T12:28:46.534Z,9.40
2023-04-18T12:31:15.466Z,14.80
2023-04-18T12:33:44.705Z,15.30
2023-04-18T12:36:13.289Z,16.80
2023-04-18T12:38:41.971Z,18.20
2023-04-18T12:41:10.756Z,24.70
2023-04-18T12:43:39.458Z,17.00
2023-04-18T12:46:08.135Z,20.00
2023-04-18T12:48:36.451Z,14.20
2023-04-18T12:51:04.988Z,9.50
2023-04-18T12:53:35.209Z,14.70
2023-04-18T12:56:05.004Z,14.90
2023-04-18T12:58:34.276Z,16.40
2023-04-18T13:01:05.182Z,12.30
2023-04-18T13:03:34.779Z,14.00
2023-04-18T13:13:34.457Z,12.90
2023-04-18T13:16:05.116Z,11.30
2023-04-18T13:18:33.647Z,9.00
2023-04-18T13:21:02.031Z,10.40
2023-04-18T13:23:30.636Z,10.30
2023-04-18T13:25:59.296Z,10.90
2023-04-18T13:28:27.925Z,12.60
2023-04-18T13:30:56.866Z,8.70
2023-04-18T13:33:25.254Z,10.20
2023-04-18T13:35:53.733Z,11.20
2023-04-18T13:38:22.213Z,11.50
2023-04-18T13:40:58.232Z,9.00
2023-04-18T13:43:37.712Z,11.50
2023-04-18T13:46:06.985Z,10.80
2023-04-18T13:48:35.611Z,9.70
2023-04-18T13:51:04.580Z,9.60
2023-04-18T13:53:33.071Z,7.70
2023-04-18T13:56:02.057Z,9.70
2023-04-18T13:58:30.536Z,9.50
2023-04-18T14:00:59.233Z,9.50
2023-04-18T14:03:28.895Z,9.80
2023-04-18T14:06:00.487Z,10.50
2023-04-18T14:08:29.368Z,11.70
2023-04-18T14:10:57.814Z,12.70
2023-04-18T14:13:26.355Z,8.50
2023-04-18T14:15:55.046Z,9.70
2023-04-18T14:18:24.933Z,11.80
2023-04-18T14:20:53.527Z,11.00
2023-04-18T14:23:23.147Z,8.80
2023-04-18T14:25:52.228Z,10.90
2023-04-18T14:28:23.984Z,9.80
2023-04-18T14:30:52.554Z,8.70
2023-04-18T14:33:21.783Z,9.00
2023-04-18T14:35:50.765Z,7.60
2023-04-18T14:38:19.539Z,11.30
2023-04-18T14:40:48.431Z,9.20
2023-04-18T14:43:16.930Z,7.80
2023-04-18T14:45:45.717Z,10.90
2023-04-18T14:48:15.082Z,8.30
2023-04-18T14:50:46.365Z,9.60
2023-04-18T14:53:14.707Z,13.90
2023-04-18T14:55:45.152Z,19.90
2023-04-18T14:58:16.044Z,15.30
2023-04-18T15:00:46.090Z,11.10
2023-04-18T15:03:14.830Z,11.50
2023-04-18T15:05:46.701Z,10.20
2023-04-18T15:08:16.466Z,14.00
2023-04-18T15:10:46.895Z,11.60
2023-04-18T15:13:16.917Z,13.80
2023-04-18T15:15:52.157Z,13.20
2023-04-18T15:18:21.732Z,15.60
2023-04-18T15:20:52.082Z,18.70
2023-04-18T15:23:20.797Z,16.70
2023-04-18T15:25:49.559Z,13.80
2023-04-18T15:28:19.476Z,15.10
2023-04-18T15:30:48.059Z,14.80
2023-04-18T15:33:19.321Z,13.40
2023-04-18T15:35:48.416Z,16.70
2023-04-18T15:38:17.090Z,16.70
2023-04-18T15:40:46.061Z,19.40
2023-04-18T15:43:14.669Z,19.00
2023-04-18T15:45:45.014Z,14.70
2023-04-18T15:48:14.143Z,15.80
2023-04-18T15:50:43.077Z,15.00
2023-04-18T15:53:12.183Z,14.20
2023-04-18T15:55:40.947Z,14.00
2023-04-18T15:58:09.428Z,12.20
2023-04-18T16:00:38.162Z,15.50
2023-04-18T16:05:38.655Z,14.30
2023-04-18T16:08:09.119Z,13.50
2023-04-18T16:10:38.180Z,16.40
2023-04-18T16:13:07.121Z,18.30
2023-04-18T16:15:36.368Z,14.50
2023-04-18T16:18:04.914Z,17.00
2023-04-18T16:20:33.850Z,17.20
2023-04-18T16:23:02.451Z,16.30
2023-04-18T16:25:31.112Z,16.10
2023-04-18T16:28:00.523Z,17.90
2023-04-18T16:30:29.000Z,20.80
2023-04-18T16:32:57.748Z,25.70
2023-04-18T16:35:26.775Z,20.00
2023-04-18T16:37:55.681Z,36.80
2023-04-18T16:40:24.164Z,44.40
2023-04-18T16:42:53.166Z,44.60
2023-04-18T16:45:22.754Z,43.80
2023-04-18T16:47:51.935Z,45.30
2023-04-18T16:50:23.021Z,46.50
2023-04-18T16:52:51.884Z,43.40
2023-04-18T16:55:20.570Z,49.90
2023-04-18T16:57:49.254Z,46.90
2023-04-18T17:00:18.453Z,53.30
2023-04-18T17:02:48.631Z,54.80
2023-04-18T17:05:18.879Z,54.50
2023-04-18T17:08:00.289Z,54.00
2023-04-18T17:11:45.046Z,47.00
2023-04-18T17:14:18.678Z,55.10
2023-04-18T17:16:53.454Z,48.60
2023-04-18T17:19:24.126Z,41.70
2023-04-18T17:21:52.809Z,48.60
2023-04-18T17:24:22.712Z,40.90
2023-04-18T17:26:58.183Z,43.80
2023-04-18T17:29:26.858Z,53.90
2023-04-18T17:31:55.684Z,44.10
2023-04-18T17:34:25.239Z,45.90
2023-04-18T17:36:53.725Z,46.40
2023-04-18T17:39:33.883Z,45.10
2023-04-18T17:42:02.351Z,48.00
2023-04-18T17:44:31.033Z,48.40
2023-04-18T17:47:08.329Z,50.80
2023-04-18T17:49:38.450Z,60.40
2023-04-18T17:52:32.727Z,61.40
2023-04-18T17:55:53.853Z,60.90
2023-04-18T17:58:55.278Z,56.40
2023-04-18T18:04:20.883Z,69.70
2023-04-18T18:07:37.442Z,58.50
2023-04-18T18:10:23.854Z,64.70
2023-04-18T18:12:55.499Z,66.10
2023-04-18T18:15:32.265Z,59.70
2023-04-18T18:18:18.777Z,61.80
2023-04-18T18:23:16.676Z,64.40
2023-04-18T18:25:46.266Z,72.60
2023-04-18T18:28:14.965Z,59.90
2023-04-18T18:31:10.291Z,66.00
2023-04-18T18:34:01.822Z,63.10
2023-04-18T18:36:33.911Z,59.10
2023-04-18T18:39:25.614Z,65.80
2023-04-18T18:41:55.076Z,65.60
2023-04-18T18:44:23.946Z,60.40
2023-04-18T18:47:00.832Z,64.00
2023-04-18T18:49:29.425Z,60.50
2023-04-18T18:52:09.917Z,61.60
2023-04-18T18:55:06.349Z,65.80
2023-04-18T18:57:42.477Z,59.20
2023-04-18T19:01:01.518Z,65.40
2023-04-18T19:03:39.687Z,66.90
2023-04-18T19:07:22.592Z,64.10
2023-04-18T19:10:16.703Z,58.80
2023-04-18T19:12:45.459Z,64.10
2023-04-18T19:15:14.966Z,61.00
2023-04-18T19:17:43.776Z,55.90
2023-04-18T19:21:02.970Z,53.30
2023-04-18T19:23:56.333Z,59.60
2023-04-18T19:26:57.729Z,59.40
2023-04-18T19:29:32.707Z,59.90
2023-04-18T19:32:04.067Z,58.80
2023-04-18T19:34:58.934Z,51.10
2023-04-18T19:40:56.821Z,62.20
2023-04-18T19:43:59.105Z,57.10
2023-04-18T19:47:01.849Z,56.00
2023-04-18T19:49:41.911Z,61.60
2023-04-18T19:52:44.798Z,60.50
2023-04-18T19:55:37.434Z,66.60
2023-04-18T19:58:38.896Z,65.00
2023-04-18T20:01:10.542Z,56.90
2023-04-18T20:06:09.170Z,59.20
2023-04-18T20:08:41.745Z,56.00
2023-04-18T20:11:12.245Z,59.90
2023-04-18T20:13:41.665Z,61.00
2023-04-18T20:16:11.404Z,52.50
2023-04-18T20:18:41.944Z,57.90
2023-04-18T20:21:11.310Z,58.10
2023-04-18T20:23:42.364Z,59.50
2023-04-18T20:26:11.333Z,62.70
2023-04-18T20:28:40.633Z,56.90
2023-04-18T20:31:09.389Z,50.00
2023-04-18T20:33:38.632Z,51.80
2023-04-18T20:36:08.492Z,53.10
2023-04-18T20:38:37.185Z,52.20
2023-04-18T20:41:06.656Z,54.50
2023-04-18T20:43:37.535Z,46.90
2023-04-18T20:46:07.961Z,50.40
2023-04-18T20:48:36.334Z,53.10
2023-04-18T20:51:05.954Z,53.30
2023-04-18T20:53:35.357Z,52.50
2023-04-18T20:56:05.794Z,50.60
2023-04-18T20:58:34.388Z,51.60
2023-04-18T21:01:03.322Z,53.40
2023-04-18T21:03:32.686Z,51.70
2023-04-18T21:06:02.212Z,55.10
2023-04-18T21:08:32.010Z,50.90
2023-04-18T21:11:00.352Z,55.10
2023-04-18T21:13:28.916Z,55.20
2023-04-18T21:15:57.480Z,50.50
2023-04-18T21:18:26.024Z,50.60
2023-04-18T21:20:54.754Z,54.90
2023-04-18T21:23:26.058Z,54.30
2023-04-18T21:25:57.218Z,55.70
2023-04-18T21:28:25.992Z,59.20
2023-04-18T21:30:55.080Z,57.00
2023-04-18T21:33:24.901Z,64.60
2023-04-18T21:35:53.276Z,66.60
2023-04-18T21:38:25.565Z,60.00
2023-04-18T21:40:54.022Z,71.80
2023-04-18T21:43:22.621Z,70.50
2023-04-18T21:45:51.437Z,59.90
2023-04-18T21:48:20.090Z,62.10
2023-04-18T21:50:55.125Z,60.00
2023-04-18T21:53:23.707Z,62.00
2023-04-18T21:55:52.178Z,64.10
2023-04-18T21:58:20.666Z,61.90
2023-04-18T22:00:50.082Z,53.60
2023-04-18T22:03:18.757Z,59.10
2023-04-18T22:05:47.581Z,70.00
2023-04-18T22:08:16.540Z,58.50
2023-04-18T22:10:46.469Z,61.90
2023-04-18T22:13:14.931Z,56.70
2023-04-18T22:15:43.446Z,62.30
2023-04-18T22:18:14.732Z,54.50
2023-04-18T22:20:43.440Z,57.70
2023-04-18T22:23:12.293Z,53.90
2023-04-18T22:25:41.221Z,56.30
2023-04-18T22:28:09.811Z,59.60
2023-04-18T22:30:38.713Z,64.90
2023-04-18T22:33:07.179Z,60.40
2023-04-18T22:35:35.980Z,60.40
2023-04-18T22:38:04.556Z,65.00
2023-04-18T22:40:33.034Z,61.90
2023-04-18T22:43:01.439Z,57.90
2023-04-18T22:45:29.997Z,63.30
2023-04-18T22:47:58.612Z,61.80
2023-04-18T22:50:27.573Z,57.80
2023-04-18T22:52:57.481Z,60.80
2023-04-18T22:55:26.295Z,54.30
2023-04-18T22:57:54.766Z,52.70
2023-04-18T23:00:23.765Z,56.30
2023-04-18T23:02:53.181Z,55.40
2023-04-18T23:05:21.866Z,57.40
2023-04-18T23:07:50.835Z,51.20
2023-04-18T23:10:19.515Z,56.60
2023-04-18T23:12:48.315Z,51.40
2023-04-18T23:15:17.605Z,54.30
2023-04-18T23:17:46.153Z,50.50
2023-04-18T23:20:14.981Z,57.10
2023-04-18T23:22:43.558Z,53.30
2023-04-18T23:25:12.865Z,58.70
2023-04-18T23:27:42.264Z,54.70
2023-04-18T23:30:11.261Z,53.20
2023-04-18T23:32:39.736Z,51.00
2023-04-18T23:35:08.938Z,56.80
2023-04-18T23:37:37.421Z,59.60
2023-04-18T23:40:07.012Z,59.40
2023-04-18T23:42:36.237Z,53.00
2023-04-18T23:45:06.063Z,52.80
2023-04-18T23:47:34.891Z,49.90
2023-04-18T23:50:03.299Z,56.00
2023-04-18T23:52:32.000Z,54.10
2023-04-18T23:55:01.395Z,52.30
2023-04-18T23:57:29.768Z,51.50
2023-04-18T23:59:58.347Z,49.80
